Time;durP1;ratioP1;P1;durP2;ratioP2;P2;SDS_P1;SDS_P2;PMS_P1;PMS_P2;Temp;Humidity;BMP_temperature;BMP_pressure;BME280_temperature;BME280_humidity;BME280_pressure;Samples;Min_cycle;Max_cycle;Signal;HPM_P1;HPM_P2
2021/12/16 00:09:00;;;;;;;43.15;21.15;;;;;;;4.95;85.70;99916.32;1654032;84;25664;-61
2021/12/16 00:10:56;;;;;;;;;;;;;;;4.89;85.79;99917.58;1649335;86;26744;-61
2021/12/16 00:33:10;;;;;;;52.43;24.47;;;;;;;4.92;85.81;99916.25;1654034;86;25424;-61
2021/12/16 00:34:50;;;;;;;54.88;27.40;;;;;;;4.91;85.95;99913.27;1648083;85;25677;-61
2021/12/16 00:37:17;;;;;;;58.05;26.57;;;;;;;4.89;85.99;99913.50;1653808;85;27473;-61
2021/12/16 00:39:45;;;;;;;50.48;25.12;;;;;;;4.88;85.84;99914.58;1653724;86;25604;-61
2021/12/16 00:42:42;;;;;;;46.90;23.52;;;;;;;4.88;85.96;99906.44;1653689;85;25720;-61
2021/12/16 00:47:32;;;;;;;58.05;24.50;;;;;;;4.83;85.99;99908.21;1654012;85;25403;-61
2021/12/16 00:50:05;;;;;;;44.88;19.95;;;;;;;4.81;86.01;99903.02;1653469;86;26961;-61
2021/12/16 00:55:30;;;;;;;49.27;22.05;;;;;;;4.85;86.16;99905.56;1653587;86;25685;-61
2021/12/16 00:57:44;;;;;;;28.77;13.70;;;;;;;4.86;86.15;99911.28;1652264;86;25621;-61
2021/12/16 01:00:15;;;;;;;38.28;20.37;;;;;;;4.84;85.99;99913.41;1653621;85;25407;-61
2021/12/16 01:03:08;;;;;;;39.15;17.62;;;;;;;4.78;86.08;99917.13;1653808;85;26123;-61
2021/12/16 01:46:41;;;;;;;37.67;18.73;;;;;;;4.74;86.34;99901.00;1653620;86;25585;-61
2021/12/16 01:51:54;;;;;;;69.87;29.18;;;;;;;4.71;86.52;99890.10;1653543;85;25717;-60
2021/12/16 01:57:08;;;;;;;56.35;26.60;;;;;;;4.64;86.59;99883.45;1653579;86;25980;-61
2021/12/16 01:59:36;;;;;;;48.13;22.27;;;;;;;4.66;86.75;99886.48;1653536;86;25430;-61
2021/12/16 02:02:04;;;;;;;56.53;24.57;;;;;;;4.63;86.75;99887.25;1653319;86;25713;-60
2021/12/16 02:04:38;;;;;;;71.15;30.00;;;;;;;4.67;86.83;99890.83;1653157;86;25434;-61
2021/12/16 02:09:30;;;;;;;50.08;22.70;;;;;;;4.80;86.70;99887.00;1653829;85;25636;-61
2021/12/16 02:28:29;;;;;;;45.33;22.62;;;;;;;4.74;86.71;99876.03;1653534;86;25677;-61
2021/12/16 02:38:56;;;;;;;52.73;27.32;;;;;;;4.77;86.85;99872.83;1654058;85;25419;-61
2021/12/16 02:41:24;;;;;;;37.65;20.35;;;;;;;4.81;86.72;99869.63;1653510;85;25660;-61
2021/12/16 02:49:03;;;;;;;42.43;20.80;;;;;;;4.90;86.31;99868.96;1653698;86;27457;-60
2021/12/16 02:51:30;;;;;;;38.17;20.75;;;;;;;4.90;86.36;99865.44;1653663;86;27223;-60
2021/12/16 02:54:01;;;;;;;44.67;22.40;;;;;;;4.88;86.45;99868.93;1654065;85;25541;-60
2021/12/16 02:56:29;;;;;;;41.15;22.17;;;;;;;4.88;86.49;99868.93;1654130;85;25594;-61
2021/12/16 02:58:58;;;;;;;38.92;20.90;;;;;;;4.85;86.40;99866.70;1653638;86;25664;-61
2021/12/16 03:01:41;;;;;;;44.42;22.67;;;;;;;4.79;86.42;99867.68;1653873;85;27848;-60
2021/12/16 03:04:12;;;;;;;43.83;23.22;;;;;;;4.73;86.46;99859.98;1653604;85;27164;-60
2021/12/16 03:06:41;;;;;;;;;;;;;;;4.71;86.66;99862.95;1656385;86;25810;-60
2021/12/16 03:09:12;;;;;;;36.75;20.00;;;;;;;4.74;86.66;99861.63;1653749;85;25908;-60
2021/12/16 03:12:28;;;;;;;38.35;20.32;;;;;;;4.73;86.76;99862.70;1654066;85;25386;-61
2021/12/16 03:14:29;;;;;;;42.40;20.70;;;;;;;4.75;86.72;99865.45;1652168;86;27004;-60
2021/12/16 03:19:40;;;;;;;37.13;20.62;;;;;;;4.76;86.74;99856.78;1653742;85;25444;-61
2021/12/16 03:21:56;;;;;;;36.88;19.87;;;;;;;4.80;86.80;99848.42;1652141;86;25700;-61
2021/12/16 03:32:37;;;;;;;40.83;21.52;;;;;;;4.88;86.76;99860.78;1690433;84;25742;-61
2021/12/16 03:35:04;;;;;;;43.25;23.05;;;;;;;4.85;86.76;99862.11;1690514;84;25721;-61
2021/12/16 03:37:31;;;;;;;40.95;22.02;;;;;;;4.86;86.82;99865.63;1689060;84;25496;-61
2021/12/16 03:40:09;;;;;;;44.70;22.35;;;;;;;4.88;86.77;99868.93;1690953;84;28260;-61
2021/12/16 03:42:43;;;;;;;42.38;22.73;;;;;;;4.89;86.61;99871.92;1690681;84;25472;-61
2021/12/16 03:48:07;;;;;;;39.70;19.80;;;;;;;4.89;86.67;99872.76;1690467;84;25726;-61
2021/12/16 03:50:34;;;;;;;43.35;21.17;;;;;;;4.97;86.81;99866.09;1690815;84;25598;-61
2021/12/16 03:53:01;;;;;;;39.90;20.30;;;;;;;5.02;86.72;99864.84;1690387;84;27452;-61
2021/12/16 03:55:28;;;;;;;41.65;20.68;;;;;;;5.06;86.65;99863.79;1690589;84;25489;-61
2021/12/16 03:57:54;;;;;;;38.70;21.25;;;;;;;5.07;86.51;99871.41;1690294;84;25615;-61
2021/12/16 04:00:26;;;;;;;42.17;21.45;;;;;;;5.08;86.53;99868.98;1690357;84;25807;-61
2021/12/16 04:02:53;;;;;;;41.60;20.17;;;;;;;5.04;86.49;99868.66;1690405;84;25450;-61
2021/12/16 04:05:20;;;;;;;40.30;21.27;;;;;;;5.05;86.50;99877.09;1690751;84;28111;-61
2021/12/16 04:07:48;;;;;;;41.02;20.68;;;;;;;5.04;86.46;99874.09;1690254;84;25487;-61
2021/12/16 04:10:33;;;;;;;40.60;22.50;;;;;;;4.99;86.38;99877.55;1690559;84;25658;-61
2021/12/16 04:12:59;;;;;;;43.70;22.73;;;;;;;5.00;86.51;99885.15;1690245;84;25694;-61
2021/12/16 04:15:26;;;;;;;46.88;23.35;;;;;;;4.99;86.50;99884.34;1690521;84;25642;-61
2021/12/16 04:17:52;;;;;;;44.75;23.98;;;;;;;4.97;86.23;99881.04;1690491;84;26741;-61
2021/12/16 04:20:19;;;;;;;44.15;24.55;;;;;;;4.98;86.64;99885.95;1690554;84;25542;-61
2021/12/16 04:22:46;;;;;;;50.08;28.10;;;;;;;5.01;86.61;99888.17;1690603;84;25473;-61
2021/12/16 04:25:21;;;;;;;48.35;27.17;;;;;;;4.98;86.43;99888.11;1690436;84;25895;-61
2021/12/16 04:27:53;;;;;;;47.17;26.42;;;;;;;4.98;86.62;99891.38;1690086;84;25682;-61
2021/12/16 04:30:22;;;;;;;44.75;24.32;;;;;;;4.95;86.50;99885.89;1690393;84;28642;-61
2021/12/16 04:32:48;;;;;;;42.35;21.25;;;;;;;4.96;86.39;99891.63;1690535;84;25619;-61
2021/12/16 04:35:16;;;;;;;43.48;22.22;;;;;;;4.98;86.36;99894.09;1690326;84;25706;-61
2021/12/16 04:37:43;;;;;;;37.85;19.45;;;;;;;4.98;86.37;99896.81;1690640;84;25730;-61
2021/12/16 04:40:12;;;;;;;37.30;18.27;;;;;;;5.02;86.42;99905.59;1690725;84;25677;-61
2021/12/16 04:42:39;;;;;;;41.70;21.87;;;;;;;4.99;86.30;99906.08;1690600;84;27474;-61
2021/12/16 04:45:10;;;;;;;45.70;23.90;;;;;;;4.99;86.25;99898.45;1690464;84;25662;-61
2021/12/16 04:47:39;;;;;;;50.67;28.00;;;;;;;4.96;86.44;99891.63;1690905;84;25604;-61
2021/12/16 04:50:09;;;;;;;53.58;27.17;;;;;;;4.99;86.53;99897.93;1690396;84;26851;-61
2021/12/16 04:52:36;;;;;;;55.67;26.65;;;;;;;4.97;86.56;99896.50;1690606;84;25718;-61
2021/12/16 04:55:06;;;;;;;61.65;31.17;;;;;;;4.96;86.58;99897.59;1690655;84;27483;-61
2021/12/16 04:57:33;;;;;;;63.42;32.93;;;;;;;4.96;86.38;99894.87;1690766;84;25674;-61
2021/12/16 05:00:00;;;;;;;61.45;27.15;;;;;;;4.96;86.30;99892.98;1690346;84;25625;-61
2021/12/16 05:02:27;;;;;;;62.75;28.50;;;;;;;4.97;86.38;99891.91;1690684;84;25828;-61
2021/12/16 05:04:54;;;;;;;63.78;28.35;;;;;;;4.97;86.17;99895.98;1690372;84;25422;-61
2021/12/16 05:07:22;;;;;;;63.78;28.57;;;;;;;4.95;86.27;99898.11;1690369;84;27493;-61
2021/12/16 05:10:07;;;;;;;65.17;30.25;;;;;;;4.99;86.33;99898.45;1690255;84;25634;-61
2021/12/16 05:12:40;;;;;;;59.40;27.75;;;;;;;5.02;86.39;99901.52;1690213;84;25650;-61
2021/12/16 05:15:12;;;;;;;56.37;26.97;;;;;;;5.02;86.32;99898.80;1690546;84;25809;-61
2021/12/16 05:17:45;;;;;;;52.85;26.42;;;;;;;5.04;86.32;99901.27;1690624;84;25633;-61
2021/12/16 05:20:21;;;;;;;47.25;23.87;;;;;;;5.03;86.35;99895.53;1690367;84;26932;-61
2021/12/16 05:28:03;;;;;;;51.53;25.62;;;;;;;4.94;85.93;99900.55;1690460;84;25500;-61
2021/12/16 05:30:29;;;;;;;48.70;27.77;;;;;;;4.94;86.11;99899.71;1690365;84;25681;-61
2021/12/16 05:32:56;;;;;;;48.00;25.50;;;;;;;4.94;86.13;99903.78;1690333;84;29536;-62
2021/12/16 05:35:26;;;;;;;50.38;26.45;;;;;;;4.96;86.19;99909.81;1690105;84;25529;-61
2021/12/16 05:37:52;;;;;;;43.50;22.98;;;;;;;4.99;86.15;99912.04;1690699;84;25796;-61
2021/12/16 05:40:26;;;;;;;47.08;24.18;;;;;;;5.01;86.00;99913.98;1690364;84;25738;-61
2021/12/16 05:42:59;;;;;;;37.35;19.87;;;;;;;4.98;85.92;99911.76;1690397;84;25496;-61
2021/12/16 05:45:27;;;;;;;56.42;30.97;;;;;;;4.96;85.91;99910.64;1690350;84;27432;-61
2021/12/16 05:47:58;;;;;;;62.78;33.80;;;;;;;4.95;86.02;99913.61;1690399;84;25462;-61
2021/12/16 05:50:27;;;;;;;205.55;81.85;;;;;;;4.91;86.04;99914.62;1690842;84;25725;-61
2021/12/16 05:52:54;;;;;;;218.50;103.07;;;;;;;4.86;85.85;99915.88;1690657;84;26431;-61
2021/12/16 05:55:20;;;;;;;202.35;101.07;;;;;;;4.80;86.14;99916.33;1690321;84;25418;-61
2021/12/16 05:57:48;;;;;;;293.70;158.42;;;;;;;4.83;86.30;99919.08;1690279;84;27389;-61
2021/12/16 06:00:23;;;;;;;433.42;156.90;;;;;;;4.86;86.22;99915.34;1690595;84;25695;-61
2021/12/16 06:02:50;;;;;;;184.45;64.62;;;;;;;4.90;86.24;99914.34;1690266;84;25625;-61
2021/12/16 06:05:17;;;;;;;238.25;78.12;;;;;;;4.95;86.14;99918.48;1690855;84;25877;-61
2021/12/16 06:07:44;;;;;;;88.25;36.03;;;;;;;4.98;85.98;99917.19;1690310;84;25687;-61
2021/12/16 06:10:42;;;;;;;112.68;44.77;;;;;;;4.98;85.75;99920.71;1690288;84;27501;-61
2021/12/16 06:12:41;;;;;;;196.32;76.60;;;;;;;5.00;85.88;99917.75;1690621;84;25829;-61
2021/12/16 06:15:21;;;;;;;147.20;52.75;;;;;;;5.02;85.85;99922.41;1690536;84;25690;-61
2021/12/16 06:28:35;;;;;;;178.32;47.95;;;;;;;4.83;85.75;99919.08;1690960;84;25737;-61
2021/12/16 06:31:01;;;;;;;185.18;47.00;;;;;;;4.87;85.89;99921.62;1696035;84;25655;-61
2021/12/16 06:33:28;;;;;;;126.90;41.02;;;;;;;4.88;85.57;99922.73;1696225;84;25614;-61
2021/12/16 06:35:55;;;;;;;145.65;40.52;;;;;;;4.88;85.64;99925.45;1696110;84;27394;-61
2021/12/16 06:38:24;;;;;;;135.05;40.95;;;;;;;4.87;85.62;99917.55;1696411;84;25658;-61
2021/12/16 06:40:52;;;;;;;120.35;35.52;;;;;;;4.85;85.65;99915.59;1696254;84;25667;-61
2021/12/16 06:43:21;;;;;;;90.28;31.62;;;;;;;4.84;85.84;99913.41;1696069;84;25881;-61
2021/12/16 06:45:51;;;;;;;169.07;45.55;;;;;;;4.85;85.83;99915.59;1696245;84;25643;-61
2021/12/16 06:48:23;;;;;;;115.85;36.88;;;;;;;4.76;85.65;99915.17;1696231;84;26916;-61
2021/12/16 06:50:54;;;;;;;115.95;37.58;;;;;;;4.73;85.84;99912.94;1695842;84;25469;-61
2021/12/16 06:53:25;;;;;;;103.50;33.85;;;;;;;4.73;85.93;99914.30;1695693;84;25791;-61
2021/12/16 06:56:14;;;;;;;119.45;36.93;;;;;;;4.74;85.89;99924.92;1695984;84;25447;-61
2021/12/16 06:58:39;;;;;;;82.47;30.60;;;;;;;4.77;85.96;99920.88;1692863;84;25449;-61
2021/12/16 07:01:14;;;;;;;107.10;33.88;;;;;;;4.83;85.95;99921.27;1696016;84;26750;-61
2021/12/16 07:03:50;;;;;;;99.83;33.40;;;;;;;4.85;85.80;99921.86;1695021;84;25480;-61
2021/12/16 07:06:21;;;;;;;99.85;33.83;;;;;;;4.88;85.74;99922.73;1696297;84;25624;-61
2021/12/16 07:08:52;;;;;;;151.85;42.40;;;;;;;4.87;85.77;99927.05;1696562;84;25918;-61
2021/12/16 07:11:19;;;;;;;;;;;;;;;4.83;85.74;99929.42;1698924;84;25488;-61
2021/12/16 07:13:56;;;;;;;132.18;39.15;;;;;;;4.85;86.08;99926.46;1696146;84;27365;-61
2021/12/16 07:16:14;;;;;;;112.72;36.40;;;;;;;4.85;86.14;99930.01;1695551;84;25443;-60
2021/12/16 07:18:40;;;;;;;105.63;37.60;;;;;;;4.84;85.99;99932.97;1696211;84;25682;-60
2021/12/16 07:21:07;;;;;;;95.38;34.18;;;;;;;4.80;86.03;99932.63;1696446;84;26052;-61
2021/12/16 07:23:34;;;;;;;93.78;30.65;;;;;;;4.80;86.06;99925.83;1696433;84;25673;-61
2021/12/16 07:26:00;;;;;;;78.20;27.70;;;;;;;4.84;85.97;99918.83;1696166;84;27897;-61
2021/12/16 07:28:28;;;;;;;51.00;22.22;;;;;;;4.86;85.88;99918.06;1696257;84;25437;-61
2021/12/16 07:30:55;;;;;;;95.25;32.38;;;;;;;4.91;85.84;99924.13;1690738;84;25473;-61
2021/12/16 07:33:22;;;;;;;52.90;22.25;;;;;;;4.93;85.81;99921.17;1690650;84;25707;-61
2021/12/16 07:35:49;;;;;;;52.30;21.23;;;;;;;4.94;85.67;99924.16;1690589;84;25460;-61
2021/12/16 07:38:16;;;;;;;79.32;28.05;;;;;;;4.96;85.61;99926.94;1690367;84;27454;-61
2021/12/16 07:40:46;;;;;;;86.95;28.98;;;;;;;4.97;85.67;99925.03;1690350;84;25595;-60
2021/12/16 07:43:41;;;;;;;95.22;31.68;;;;;;;4.96;85.72;99922.88;1690691;84;25446;-61
2021/12/16 07:45:57;;;;;;;87.62;30.15;;;;;;;4.96;85.76;99926.94;1690316;84;25654;-61
2021/12/16 07:48:27;;;;;;;62.25;24.67;;;;;;;4.97;85.75;99933.18;1690772;84;25603;-61
2021/12/16 07:50:58;;;;;;;74.85;26.55;;;;;;;4.96;85.89;99922.03;1690756;84;27385;-62
2021/12/16 07:53:25;;;;;;;;;;;;;;;5.00;85.82;99928.09;1693132;84;25895;-61
2021/12/16 07:55:53;;;;;;;72.70;27.82;;;;;;;5.01;85.65;99930.28;1690834;84;25469;-61
2021/12/16 07:58:20;;;;;;;91.37;32.80;;;;;;;5.01;85.87;99931.64;1690589;84;25679;-61
2021/12/16 08:00:47;;;;;;;65.97;30.02;;;;;;;5.07;85.93;99935.27;1690485;84;25444;-61
2021/12/16 08:03:15;;;;;;;87.67;32.35;;;;;;;5.11;85.75;99937.25;1690624;84;28238;-61
2021/12/16 08:05:47;;;;;;;71.87;30.23;;;;;;;5.22;86.09;99934.70;1690575;84;25758;-61
2021/12/16 08:08:16;;;;;;;74.82;31.75;;;;;;;5.28;85.54;99935.08;1690553;84;25666;-61
2021/12/16 08:10:44;;;;;;;151.37;47.35;;;;;;;5.33;85.77;99929.73;1690740;84;25762;-61
2021/12/16 08:13:11;;;;;;;82.37;32.80;;;;;;;5.40;85.79;99936.34;1690617;84;25647;-61
2021/12/16 08:15:38;;;;;;;67.35;31.52;;;;;;;5.41;85.51;99937.98;1690540;84;27492;-61
2021/12/16 08:18:04;;;;;;;68.40;29.95;;;;;;;5.35;85.53;99938.45;1690256;84;25688;-61
2021/12/16 08:20:32;;;;;;;103.38;35.85;;;;;;;5.40;85.66;99939.06;1690489;84;25635;-61
2021/12/16 08:22:59;;;;;;;55.00;28.42;;;;;;;5.44;85.62;99936.69;1690440;84;25770;-61
2021/12/16 08:25:29;;;;;;;117.65;42.13;;;;;;;5.50;85.51;99933.78;1690749;84;25608;-61
2021/12/16 08:27:58;;;;;;;93.30;34.18;;;;;;;5.55;84.97;99940.39;1690778;84;27370;-61
2021/12/16 08:30:28;;;;;;;84.77;32.80;;;;;;;5.59;85.18;99951.05;1693875;84;25619;-61
2021/12/16 08:32:56;;;;;;;175.30;57.58;;;;;;;5.63;85.13;99952.19;1696549;84;25795;-61
2021/12/16 08:35:23;;;;;;;130.32;47.93;;;;;;;5.69;84.95;99947.13;1696083;84;25784;-61
2021/12/16 08:37:51;;;;;;;52.95;22.45;;;;;;;5.74;84.85;99940.94;1695987;84;25626;-61
2021/12/16 08:40:21;;;;;;;75.95;28.95;;;;;;;5.74;84.49;99942.30;1696030;84;27393;-61
2021/12/16 08:42:50;;;;;;;64.03;26.70;;;;;;;5.62;84.43;99936.95;1696382;84;25488;-61
2021/12/16 08:45:22;;;;;;;76.55;32.10;;;;;;;5.62;84.43;99936.95;1696414;84;25648;-61
2021/12/16 08:47:49;;;;;;;64.62;27.42;;;;;;;5.65;84.67;99939.98;1694827;84;25746;-61
2021/12/16 08:50:19;;;;;;;76.90;29.57;;;;;;;5.64;84.64;99936.98;1696219;84;25651;-61
2021/12/16 08:52:46;;;;;;;79.77;32.38;;;;;;;5.62;84.64;99936.41;1696678;84;27558;-61
2021/12/16 08:55:15;;;;;;;51.42;21.87;;;;;;;5.63;84.61;99942.15;1696327;84;25443;-61
2021/12/16 08:57:43;;;;;;;45.45;21.07;;;;;;;5.61;84.25;99940.73;1696254;84;25475;-61
2021/12/16 09:00:15;;;;;;;52.48;20.52;;;;;;;5.61;84.29;99944.28;1696427;84;26193;-61
2021/12/16 09:02:42;;;;;;;57.58;26.52;;;;;;;5.64;84.24;99949.23;1696087;84;25646;-61
2021/12/16 09:05:09;;;;;;;62.65;28.30;;;;;;;5.71;84.57;99942.27;1695950;84;27443;-61
2021/12/16 09:07:37;;;;;;;42.98;18.95;;;;;;;5.76;84.51;99940.96;1696297;84;25702;-61
2021/12/16 09:10:10;;;;;;;63.55;26.93;;;;;;;5.82;84.04;99934.25;1696585;84;25714;-61
2021/12/16 09:12:49;;;;;;;70.75;31.37;;;;;;;5.88;84.15;99938.69;1696053;84;25663;-61
2021/12/16 09:15:10;;;;;;;59.50;27.52;;;;;;;5.90;84.16;99936.00;1693203;84;25606;-61
2021/12/16 09:17:37;;;;;;;71.47;31.15;;;;;;;5.97;84.12;99935.83;1696371;84;27505;-61
2021/12/16 09:20:07;;;;;;;74.87;31.87;;;;;;;5.99;84.20;99937.73;1695838;84;25713;-61
2021/12/16 09:22:36;;;;;;;65.40;30.00;;;;;;;6.05;84.25;99928.33;1696642;84;25624;-61
2021/12/16 09:25:05;;;;;;;67.58;31.33;;;;;;;6.06;84.18;99928.08;1696050;84;25734;-61
2021/12/16 09:27:32;;;;;;;61.95;30.62;;;;;;;6.10;84.24;99927.84;1696314;84;25776;-61
2021/12/16 09:30:00;;;;;;;65.12;31.02;;;;;;;6.17;84.04;99926.84;1694377;84;27602;-61
2021/12/16 09:32:29;;;;;;;68.00;32.60;;;;;;;6.23;83.93;99928.02;1690496;84;25698;-61
2021/12/16 09:34:56;;;;;;;68.12;32.13;;;;;;;6.30;83.97;99929.17;1690356;84;25701;-61
2021/12/16 09:37:23;;;;;;;80.12;34.18;;;;;;;6.36;83.91;99929.52;1690696;84;25788;-61
2021/12/16 09:39:50;;;;;;;73.35;32.23;;;;;;;6.42;83.50;99929.59;1690683;84;25754;-61
2021/12/16 09:42:18;;;;;;;78.42;34.48;;;;;;;6.45;83.69;99928.53;1690536;84;27915;-61
2021/12/16 09:44:44;;;;;;;72.08;32.73;;;;;;;6.48;83.75;99915.77;1690534;84;25896;-61
2021/12/16 09:47:14;;;;;;;73.75;33.05;;;;;;;6.50;83.66;99915.52;1690670;84;25579;-61
2021/12/16 09:49:42;;;;;;;70.92;33.30;;;;;;;6.50;83.57;99912.79;1690598;84;26710;-60
2021/12/16 09:52:11;;;;;;;75.05;34.90;;;;;;;6.48;83.81;99914.97;1690534;84;25425;-60
2021/12/16 09:54:40;;;;;;;75.30;38.28;;;;;;;6.53;83.85;99915.00;1690692;84;27553;-61
2021/12/16 09:57:08;;;;;;;73.72;36.58;;;;;;;6.59;84.07;99909.09;1690526;84;25713;-61
2021/12/16 09:59:36;;;;;;;72.08;33.00;;;;;;;6.62;83.85;99894.97;1690666;84;25603;-61
2021/12/16 10:02:10;;;;;;;71.17;33.18;;;;;;;6.63;83.71;99894.70;1690336;84;25702;-61
2021/12/16 10:04:37;;;;;;;63.13;31.50;;;;;;;6.69;83.90;99901.55;1690939;84;25563;-61
2021/12/16 10:07:15;;;;;;;65.32;31.35;;;;;;;6.76;83.84;99897.55;1690206;84;27501;-61
2021/12/16 10:09:44;;;;;;;65.12;31.40;;;;;;;6.82;84.03;99894.32;1690278;84;25698;-61
2021/12/16 10:12:15;;;;;;;64.05;30.72;;;;;;;6.86;84.01;99899.56;1690376;84;25486;-61
2021/12/16 10:17:32;;;;;;;53.02;24.90;;;;;;;6.88;83.81;99906.11;1690714;84;25434;-61
2021/12/16 10:20:16;;;;;;;50.67;25.45;;;;;;;6.82;83.36;99904.42;1690664;84;28253;-61
2021/12/16 10:22:45;;;;;;;51.60;26.45;;;;;;;6.76;83.44;99888.54;1689405;84;25496;-61
2021/12/16 10:25:30;;;;;;;52.88;24.57;;;;;;;6.73;83.70;99891.78;1690430;84;25465;-61
2021/12/16 10:28:23;;;;;;;48.10;24.10;;;;;;;6.72;83.75;99903.77;1690546;84;25865;-61
2021/12/16 10:31:04;;;;;;;48.60;23.57;;;;;;;6.69;84.04;99901.02;1690460;84;25648;-61
2021/12/16 10:33:54;;;;;;;44.85;22.93;;;;;;;6.66;84.04;99906.98;1690539;84;33522;-61
2021/12/16 10:36:29;;;;;;;42.05;22.20;;;;;;;6.66;84.15;99909.70;1690468;84;25926;-61
2021/12/16 10:39:10;;;;;;;54.65;25.70;;;;;;;6.63;84.49;99918.39;1690766;84;25596;-61
2021/12/16 10:41:43;;;;;;;;;;;;;;;6.62;84.71;99905.86;1684203;84;25746;-61
2021/12/16 10:44:18;;;;;;;58.05;28.32;;;;;;;6.60;84.96;99903.39;1689998;84;25598;-61
2021/12/16 10:47:00;;;;;;;56.55;26.52;;;;;;;6.56;85.05;99908.24;1690735;84;27829;-61
2021/12/16 10:49:26;;;;;;;46.75;23.50;;;;;;;6.50;85.15;99902.73;1689661;84;25601;-62
2021/12/16 10:52:03;;;;;;;48.33;24.35;;;;;;;6.45;85.20;99906.75;1690437;84;25424;-61
2021/12/16 10:54:37;;;;;;;50.67;24.87;;;;;;;6.46;85.30;99898.05;1690808;84;25681;-61
2021/12/16 10:57:11;;;;;;;44.95;22.82;;;;;;;6.45;85.63;99895.85;1689641;84;25418;-61
2021/12/16 10:59:44;;;;;;;53.87;25.68;;;;;;;6.48;85.71;99887.17;1690576;84;27659;-61
2021/12/16 11:02:25;;;;;;;49.42;24.77;;;;;;;6.53;85.80;99892.69;1690313;84;25670;-61
2021/12/16 11:05:17;;;;;;;47.53;25.23;;;;;;;6.53;85.58;99886.41;1690869;84;34659;-61
2021/12/16 11:07:58;;;;;;;51.33;24.65;;;;;;;6.53;85.83;99885.88;1690688;84;26318;-61
2021/12/16 11:10:29;;;;;;;61.30;29.75;;;;;;;6.50;85.85;99890.47;1690539;84;25665;-61
2021/12/16 11:13:09;;;;;;;74.50;33.18;;;;;;;6.44;86.20;99886.58;1690937;84;27373;-61
2021/12/16 11:15:43;;;;;;;58.48;26.62;;;;;;;6.45;86.45;99892.33;1690670;84;25785;-61
2021/12/16 11:18:22;;;;;;;55.83;25.72;;;;;;;6.44;86.58;99894.75;1689763;84;25690;-62
2021/12/16 11:21:03;;;;;;;56.60;26.82;;;;;;;6.42;86.44;99890.11;1670243;83;25890;-61
2021/12/16 11:23:33;;;;;;;;;;;;;;;6.42;86.29;99894.20;1698968;83;26100;-61
2021/12/16 11:26:20;;;;;;;48.68;23.22;;;;;;;6.39;86.41;99885.45;1707385;83;26600;-61
2021/12/16 11:28:53;;;;;;;61.80;26.35;;;;;;;6.41;86.53;99887.92;1680437;85;26327;-62
2021/12/16 11:31:30;;;;;;;38.60;20.90;;;;;;;6.42;86.68;99888.75;1679149;85;25791;-61
2021/12/16 11:34:11;;;;;;;48.30;23.45;;;;;;;6.39;86.80;99890.90;1678279;85;25804;-61
2021/12/16 11:36:45;;;;;;;50.98;23.45;;;;;;;6.42;86.98;99880.02;1678587;85;25743;-61
2021/12/16 11:39:23;;;;;;;54.58;24.80;;;;;;;6.45;87.14;99889.60;1678312;85;27444;-61
2021/12/16 11:42:01;;;;;;;44.70;23.45;;;;;;;6.44;87.58;99890.66;1678631;85;25742;-61
2021/12/16 11:44:41;;;;;;;40.28;21.68;;;;;;;6.40;87.40;99887.64;1678594;85;25812;-61
2021/12/16 11:47:14;;;;;;;46.13;22.98;;;;;;;6.36;87.53;99892.77;1678943;85;25814;-60
2021/12/16 11:49:45;;;;;;;46.77;23.40;;;;;;;6.37;87.66;99899.05;1678995;85;25434;-60
2021/12/16 11:52:16;;;;;;;;;;;;;;;6.40;87.37;99902.63;1681985;85;27399;-60
2021/12/16 11:54:57;;;;;;;46.68;23.12;;;;;;;6.42;87.61;99900.45;1679305;85;26232;-60
2021/12/16 11:57:35;;;;;;;54.15;25.30;;;;;;;6.40;87.84;99889.01;1679866;85;25622;-60
2021/12/16 12:00:16;;;;;;;54.05;25.27;;;;;;;6.44;87.88;99892.86;1679337;85;25686;-60
2021/12/16 12:02:48;;;;;;;;;;;;;;;6.44;88.02;99889.30;1682067;85;25419;-60
2021/12/16 12:05:20;;;;;;;44.40;21.95;;;;;;;6.46;87.83;99894.80;1679633;85;27559;-60
2021/12/16 12:07:55;;;;;;;42.05;20.05;;;;;;;6.46;87.96;99892.07;1679559;85;25596;-60
2021/12/16 12:11:06;;;;;;;37.58;19.60;;;;;;;6.46;87.80;99889.88;1679818;85;25636;-60
2021/12/16 12:13:43;;;;;;;39.30;20.52;;;;;;;6.47;87.58;99884.70;1677998;85;25692;-60
2021/12/16 12:16:14;;;;;;;38.15;20.88;;;;;;;6.47;87.69;99883.34;1679142;85;25743;-60
2021/12/16 12:18:51;;;;;;;37.50;21.05;;;;;;;6.49;87.87;99880.67;1679243;85;27425;-60
2021/12/16 12:21:33;;;;;;;35.50;18.77;;;;;;;6.49;87.86;99871.67;1679456;85;25764;-60
2021/12/16 12:24:07;;;;;;;39.98;19.95;;;;;;;6.48;88.25;99877.64;1679369;85;25616;-61
2021/12/16 12:26:42;;;;;;;31.68;17.35;;;;;;;6.47;88.33;99869.20;1672274;85;25720;-60
2021/12/16 12:29:13;;;;;;;30.97;17.82;;;;;;;6.47;88.41;99876.00;1675913;85;25577;-60
2021/12/16 12:31:45;;;;;;;31.95;17.37;;;;;;;6.51;88.46;99877.69;1679340;85;27377;-61
2021/12/16 12:34:15;;;;;;;29.98;17.23;;;;;;;6.55;88.47;99872.00;1676335;85;43013;-60
2021/12/16 12:36:44;;;;;;;34.95;17.23;;;;;;;6.59;88.12;99877.21;1679177;85;25716;-60
2021/12/16 12:39:15;;;;;;;34.00;18.98;;;;;;;6.61;88.12;99866.89;1679339;85;25692;-60
2021/12/16 12:41:45;;;;;;;36.30;18.85;;;;;;;6.68;88.10;99869.95;1679650;85;25682;-60
2021/12/16 12:44:12;;;;;;;30.80;17.23;;;;;;;6.71;87.98;99874.89;1679490;85;27518;-62
2021/12/16 12:46:40;;;;;;;30.23;17.12;;;;;;;6.70;87.96;99865.05;1679309;85;25438;-61
2021/12/16 12:49:12;;;;;;;34.50;17.98;;;;;;;6.69;88.00;99857.44;1679507;85;25660;-62
2021/12/16 12:51:44;;;;;;;29.18;16.05;;;;;;;6.67;87.94;99861.51;1679501;85;25715;-61
2021/12/16 12:54:21;;;;;;;30.75;16.57;;;;;;;6.63;88.16;99871.55;1679291;85;25772;-61
2021/12/16 12:56:50;;;;;;;29.18;15.68;;;;;;;6.68;88.01;99869.39;1678414;85;28072;-61
2021/12/16 12:59:17;;;;;;;27.60;16.25;;;;;;;6.69;88.00;99866.14;1679490;85;25676;-61
2021/12/16 13:01:54;;;;;;;25.17;15.45;;;;;;;6.72;87.91;99875.99;1679515;85;25463;-61
2021/12/16 13:04:31;;;;;;;28.12;16.15;;;;;;;6.77;88.00;99867.84;1679667;85;25837;-62
2021/12/16 13:07:09;;;;;;;28.27;17.12;;;;;;;6.79;87.82;99873.04;1679210;85;25442;-61
2021/12/16 13:09:46;;;;;;;27.50;15.20;;;;;;;6.80;87.73;99882.05;1678967;85;27401;-61
2021/12/16 13:12:48;;;;;;;19.85;12.07;;;;;;;6.76;87.76;99887.17;1679557;85;25929;-61
2021/12/16 13:15:50;;;;;;;19.17;12.20;;;;;;;6.70;87.71;99882.23;1678518;85;25693;-61
2021/12/16 13:27:00;;;;;;;29.10;15.15;;;;;;;6.51;88.22;99891.31;1679517;85;25810;-61
2021/12/16 13:32:15;;;;;;;26.60;14.55;;;;;;;6.59;88.35;99885.38;1679223;85;25667;-61
2021/12/16 13:34:53;;;;;;;24.32;14.73;;;;;;;6.60;88.50;99888.41;1669209;85;25691;-61
2021/12/16 13:37:24;;;;;;;25.10;13.58;;;;;;;6.61;88.28;99898.22;1678904;85;26069;-61
2021/12/16 13:39:56;;;;;;;22.95;13.95;;;;;;;6.61;88.33;99886.48;1679263;85;25492;-61
2021/12/16 13:42:25;;;;;;;22.22;13.68;;;;;;;6.60;88.50;99885.69;1679006;85;25422;-61
2021/12/16 13:45:07;;;;;;;22.02;13.22;;;;;;;6.61;88.33;99886.48;1679467;85;25882;-61
2021/12/16 14:05:34;;;;;;;27.00;13.72;;;;;;;6.52;88.65;99863.81;1679236;85;26356;-60
2021/12/16 14:08:08;;;;;;;27.20;15.40;;;;;;;6.55;88.44;99869.28;1679404;84;25585;-60
2021/12/16 14:16:44;;;;;;;27.17;15.32;;;;;;;6.59;88.51;99894.92;1679625;85;25405;-60
2021/12/16 14:25:12;;;;;;;27.65;15.60;;;;;;;6.44;88.66;99905.11;1679425;85;25447;-60
2021/12/16 14:46:46;;;;;;;24.18;13.93;;;;;;;6.49;88.85;99917.96;1679313;85;25640;-60
2021/12/16 14:49:07;;;;;;;18.55;9.95;;;;;;;6.48;88.83;99917.13;1678334;85;25678;-60
2021/12/16 14:51:33;;;;;;;19.32;12.43;;;;;;;6.42;88.99;99920.06;1679714;85;25557;-60
2021/12/16 14:54:01;;;;;;;25.05;13.03;;;;;;;6.37;89.00;99929.00;1679232;85;27895;-60
2021/12/16 14:56:32;;;;;;;23.80;12.80;;;;;;;6.39;89.09;99926.30;1679533;85;25562;-60
2021/12/16 14:59:07;;;;;;;21.87;11.83;;;;;;;6.39;89.23;99930.38;1679293;85;27531;-61
2021/12/16 15:01:44;;;;;;;21.12;11.35;;;;;;;6.38;89.16;99936.08;1679618;85;25939;-60
2021/12/16 15:04:16;;;;;;;20.20;11.48;;;;;;;6.35;89.28;99934.70;1679690;85;25648;-60
2021/12/16 15:06:53;;;;;;;19.65;11.50;;;;;;;6.35;89.59;99933.86;1679355;85;25805;-61
2021/12/16 15:09:27;;;;;;;23.92;14.30;;;;;;;6.37;89.45;99930.36;1678610;85;25490;-61